sensor_id;sensor_type;location;lat;lon;timestamp;P1;durP1;ratioP1;P2;durP2;ratioP2
10481;SDS011;5288;42.334;23.876;2022-07-01T00:01:50;7.17;;;6.10;;
10481;SDS011;5288;42.334;23.876;2022-07-01T00:04:17;7.53;;;5.90;;
10481;SDS011;5288;42.334;23.876;2022-07-01T00:06:44;5.83;;;4.70;;
10481;SDS011;5288;42.334;23.876;2022-07-01T00:09:11;8.03;;;5.53;;
10481;SDS011;5288;42.334;23.876;2022-07-01T00:11:38;7.23;;;5.63;;
10481;SDS011;5288;42.334;23.876;2022-07-01T00:14:05;9.33;;;5.77;;
10481;SDS011;5288;42.334;23.876;2022-07-01T00:16:32;6.03;;;5.53;;
10481;SDS011;5288;42.334;23.876;2022-07-01T00:19:00;5.60;;;5.10;;
10481;SDS011;5288;42.334;23.876;2022-07-01T00:21:28;5.57;;;5.00;;
10481;SDS011;5288;42.334;23.876;2022-07-01T00:23:55;5.43;;;4.93;;
10481;SDS011;5288;42.334;23.876;2022-07-01T00:26:22;6.00;;;5.40;;
10481;SDS011;5288;42.334;23.876;2022-07-01T00:28:49;6.67;;;5.80;;
10481;SDS011;5288;42.334;23.876;2022-07-01T00:31:16;8.10;;;5.13;;
10481;SDS011;5288;42.334;23.876;2022-07-01T00:33:43;9.90;;;5.53;;
10481;SDS011;5288;42.334;23.876;2022-07-01T00:36:11;5.87;;;5.30;;
10481;SDS011;5288;42.334;23.876;2022-07-01T00:38:38;7.87;;;5.70;;
10481;SDS011;5288;42.334;23.876;2022-07-01T00:41:05;6.80;;;5.33;;
10481;SDS011;5288;42.334;23.876;2022-07-01T00:43:34;5.90;;;5.10;;
10481;SDS011;5288;42.334;23.876;2022-07-01T00:46:03;6.40;;;5.00;;
10481;SDS011;5288;42.334;23.876;2022-07-01T00:48:31;8.40;;;5.30;;
10481;SDS011;5288;42.334;23.876;2022-07-01T00:51:01;12.00;;;5.37;;
10481;SDS011;5288;42.334;23.876;2022-07-01T00:53:29;6.27;;;5.57;;
10481;SDS011;5288;42.334;23.876;2022-07-01T00:55:57;6.20;;;5.57;;
10481;SDS011;5288;42.334;23.876;2022-07-01T00:58:25;7.20;;;5.63;;
10481;SDS011;5288;42.334;23.876;2022-07-01T01:00:53;6.10;;;5.50;;
10481;SDS011;5288;42.334;23.876;2022-07-01T01:03:21;7.63;;;5.23;;
10481;SDS011;5288;42.334;23.876;2022-07-01T01:05:48;7.07;;;5.90;;
10481;SDS011;5288;42.334;23.876;2022-07-01T01:08:16;7.23;;;5.13;;
10481;SDS011;5288;42.334;23.876;2022-07-01T01:10:45;6.83;;;6.17;;
10481;SDS011;5288;42.334;23.876;2022-07-01T01:13:12;5.50;;;5.00;;
10481;SDS011;5288;42.334;23.876;2022-07-01T01:15:39;8.33;;;5.23;;
10481;SDS011;5288;42.334;23.876;2022-07-01T01:18:06;6.33;;;5.73;;
10481;SDS011;5288;42.334;23.876;2022-07-01T01:20:35;6.47;;;5.73;;
10481;SDS011;5288;42.334;23.876;2022-07-01T01:23:03;6.70;;;5.37;;
10481;SDS011;5288;42.334;23.876;2022-07-01T01:25:31;8.03;;;5.57;;
10481;SDS011;5288;42.334;23.876;2022-07-01T01:27:58;8.30;;;5.37;;
10481;SDS011;5288;42.334;23.876;2022-07-01T01:30:26;6.23;;;5.40;;
10481;SDS011;5288;42.334;23.876;2022-07-01T01:32:53;8.20;;;5.43;;
10481;SDS011;5288;42.334;23.876;2022-07-01T01:35:20;6.83;;;6.23;;
10481;SDS011;5288;42.334;23.876;2022-07-01T01:37:49;6.80;;;5.47;;
10481;SDS011;5288;42.334;23.876;2022-07-01T01:40:17;6.80;;;6.10;;
10481;SDS011;5288;42.334;23.876;2022-07-01T01:42:44;10.50;;;5.43;;
10481;SDS011;5288;42.334;23.876;2022-07-01T01:45:11;11.23;;;5.57;;
10481;SDS011;5288;42.334;23.876;2022-07-01T01:47:39;6.83;;;5.47;;
10481;SDS011;5288;42.334;23.876;2022-07-01T01:50:06;6.30;;;5.70;;
10481;SDS011;5288;42.334;23.876;2022-07-01T01:52:35;7.83;;;5.47;;
10481;SDS011;5288;42.334;23.876;2022-07-01T01:55:05;7.10;;;5.33;;
10481;SDS011;5288;42.334;23.876;2022-07-01T01:57:32;6.20;;;5.60;;
10481;SDS011;5288;42.334;23.876;2022-07-01T02:00:00;7.73;;;5.10;;
10481;SDS011;5288;42.334;23.876;2022-07-01T02:02:29;7.90;;;5.63;;
10481;SDS011;5288;42.334;23.876;2022-07-01T02:04:56;5.97;;;5.30;;
10481;SDS011;5288;42.334;23.876;2022-07-01T02:07:23;8.53;;;5.40;;
10481;SDS011;5288;42.334;23.876;2022-07-01T02:09:50;5.40;;;4.90;;
10481;SDS011;5288;42.334;23.876;2022-07-01T02:12:19;15.57;;;5.27;;
10481;SDS011;5288;42.334;23.876;2022-07-01T02:14:46;5.40;;;4.90;;
10481;SDS011;5288;42.334;23.876;2022-07-01T02:17:13;5.83;;;5.07;;
10481;SDS011;5288;42.334;23.876;2022-07-01T02:19:40;8.87;;;5.07;;
10481;SDS011;5288;42.334;23.876;2022-07-01T02:22:07;6.37;;;5.17;;
10481;SDS011;5288;42.334;23.876;2022-07-01T02:24:34;6.10;;;4.93;;
10481;SDS011;5288;42.334;23.876;2022-07-01T02:27:01;6.30;;;4.73;;
10481;SDS011;5288;42.334;23.876;2022-07-01T02:29:30;5.97;;;5.30;;
10481;SDS011;5288;42.334;23.876;2022-07-01T02:31:57;5.70;;;5.10;;
10481;SDS011;5288;42.334;23.876;2022-07-01T02:34:24;5.80;;;4.50;;
10481;SDS011;5288;42.334;23.876;2022-07-01T02:36:51;5.83;;;5.27;;
10481;SDS011;5288;42.334;23.876;2022-07-01T02:39:20;5.07;;;4.57;;
10481;SDS011;5288;42.334;23.876;2022-07-01T02:41:47;7.63;;;4.70;;
10481;SDS011;5288;42.334;23.876;2022-07-01T02:44:33;5.33;;;4.63;;
10481;SDS011;5288;42.334;23.876;2022-07-01T02:47:00;4.87;;;4.47;;
10481;SDS011;5288;42.334;23.876;2022-07-01T02:49:28;6.67;;;4.93;;
10481;SDS011;5288;42.334;23.876;2022-07-01T02:51:55;5.90;;;4.50;;
10481;SDS011;5288;42.334;23.876;2022-07-01T02:54:22;5.53;;;4.90;;
10481;SDS011;5288;42.334;23.876;2022-07-01T02:56:49;7.07;;;5.10;;
10481;SDS011;5288;42.334;23.876;2022-07-01T02:59:16;5.97;;;5.23;;
10481;SDS011;5288;42.334;23.876;2022-07-01T03:01:44;6.93;;;5.10;;
10481;SDS011;5288;42.334;23.876;2022-07-01T03:04:11;6.73;;;4.87;;
10481;SDS011;5288;42.334;23.876;2022-07-01T03:06:38;11.50;;;5.97;;
10481;SDS011;5288;42.334;23.876;2022-07-01T03:09:06;6.00;;;4.80;;
10481;SDS011;5288;42.334;23.876;2022-07-01T03:11:33;6.17;;;4.73;;
10481;SDS011;5288;42.334;23.876;2022-07-01T03:14:00;6.90;;;4.67;;
10481;SDS011;5288;42.334;23.876;2022-07-01T03:16:27;7.10;;;5.37;;
10481;SDS011;5288;42.334;23.876;2022-07-01T03:18:56;9.13;;;5.57;;
10481;SDS011;5288;42.334;23.876;2022-07-01T03:21:23;7.53;;;4.47;;
10481;SDS011;5288;42.334;23.876;2022-07-01T03:23:50;8.00;;;5.20;;
10481;SDS011;5288;42.334;23.876;2022-07-01T03:26:17;6.47;;;5.30;;
10481;SDS011;5288;42.334;23.876;2022-07-01T03:28:44;9.23;;;5.30;;
10481;SDS011;5288;42.334;23.876;2022-07-01T03:31:11;6.27;;;4.80;;
10481;SDS011;5288;42.334;23.876;2022-07-01T03:33:39;6.40;;;4.73;;
10481;SDS011;5288;42.334;23.876;2022-07-01T03:36:07;6.17;;;4.90;;
10481;SDS011;5288;42.334;23.876;2022-07-01T03:38:35;5.40;;;4.60;;
10481;SDS011;5288;42.334;23.876;2022-07-01T03:41:02;5.47;;;4.97;;
10481;SDS011;5288;42.334;23.876;2022-07-01T03:43:29;6.83;;;5.30;;
10481;SDS011;5288;42.334;23.876;2022-07-01T03:45:56;6.43;;;5.33;;
10481;SDS011;5288;42.334;23.876;2022-07-01T03:48:23;12.20;;;5.03;;
10481;SDS011;5288;42.334;23.876;2022-07-01T03:50:51;7.07;;;5.10;;
10481;SDS011;5288;42.334;23.876;2022-07-01T03:53:19;8.63;;;5.30;;
10481;SDS011;5288;42.334;23.876;2022-07-01T03:56:00;7.83;;;5.43;;
10481;SDS011;5288;42.334;23.876;2022-07-01T03:58:27;8.93;;;5.20;;
10481;SDS011;5288;42.334;23.876;2022-07-01T04:00:54;6.17;;;5.20;;
10481;SDS011;5288;42.334;23.876;2022-07-01T04:03:21;6.67;;;5.23;;
10481;SDS011;5288;42.334;23.876;2022-07-01T04:05:48;6.20;;;5.10;;
10481;SDS011;5288;42.334;23.876;2022-07-01T04:08:15;12.70;;;5.23;;
10481;SDS011;5288;42.334;23.876;2022-07-01T04:10:44;13.17;;;5.50;;
10481;SDS011;5288;42.334;23.876;2022-07-01T04:13:11;36.60;;;7.17;;
10481;SDS011;5288;42.334;23.876;2022-07-01T04:15:38;12.13;;;5.10;;
10481;SDS011;5288;42.334;23.876;2022-07-01T04:18:05;12.43;;;5.13;;
10481;SDS011;5288;42.334;23.876;2022-07-01T04:20:33;6.97;;;5.13;;
10481;SDS011;5288;42.334;23.876;2022-07-01T04:23:00;14.13;;;5.70;;
10481;SDS011;5288;42.334;23.876;2022-07-01T04:25:26;13.40;;;5.07;;
10481;SDS011;5288;42.334;23.876;2022-07-01T04:27:56;9.17;;;5.17;;
10481;SDS011;5288;42.334;23.876;2022-07-01T04:30:23;7.57;;;5.67;;
10481;SDS011;5288;42.334;23.876;2022-07-01T04:32:50;7.43;;;5.13;;
10481;SDS011;5288;42.334;23.876;2022-07-01T04:35:17;11.00;;;5.30;;
10481;SDS011;5288;42.334;23.876;2022-07-01T04:37:44;10.60;;;5.27;;
10481;SDS011;5288;42.334;23.876;2022-07-01T04:40:12;9.97;;;5.10;;
10481;SDS011;5288;42.334;23.876;2022-07-01T04:42:39;10.43;;;5.53;;
10481;SDS011;5288;42.334;23.876;2022-07-01T04:45:07;17.80;;;5.80;;
10481;SDS011;5288;42.334;23.876;2022-07-01T04:47:35;11.00;;;5.50;;
10481;SDS011;5288;42.334;23.876;2022-07-01T04:50:03;11.30;;;5.67;;
10481;SDS011;5288;42.334;23.876;2022-07-01T04:52:31;9.73;;;4.77;;
10481;SDS011;5288;42.334;23.876;2022-07-01T04:54:58;9.47;;;5.60;;
10481;SDS011;5288;42.334;23.876;2022-07-01T04:57:25;9.60;;;5.10;;
10481;SDS011;5288;42.334;23.876;2022-07-01T04:59:52;7.53;;;5.73;;
10481;SDS011;5288;42.334;23.876;2022-07-01T05:02:21;9.87;;;5.83;;
10481;SDS011;5288;42.334;23.876;2022-07-01T05:04:48;8.90;;;5.40;;
10481;SDS011;5288;42.334;23.876;2022-07-01T05:07:15;16.80;;;5.33;;
10481;SDS011;5288;42.334;23.876;2022-07-01T05:09:54;9.80;;;4.90;;
10481;SDS011;5288;42.334;23.876;2022-07-01T05:12:21;9.73;;;4.57;;
10481;SDS011;5288;42.334;23.876;2022-07-01T05:14:49;7.23;;;4.70;;
10481;SDS011;5288;42.334;23.876;2022-07-01T05:17:16;9.83;;;5.30;;
10481;SDS011;5288;42.334;23.876;2022-07-01T05:19:45;12.57;;;7.53;;
10481;SDS011;5288;42.334;23.876;2022-07-01T05:22:29;8.00;;;5.97;;
10481;SDS011;5288;42.334;23.876;2022-07-01T05:24:56;7.03;;;4.83;;
10481;SDS011;5288;42.334;23.876;2022-07-01T05:27:24;5.87;;;4.67;;
10481;SDS011;5288;42.334;23.876;2022-07-01T05:29:51;11.03;;;5.43;;
10481;SDS011;5288;42.334;23.876;2022-07-01T05:32:18;8.27;;;6.10;;
10481;SDS011;5288;42.334;23.876;2022-07-01T05:34:47;9.17;;;4.63;;
10481;SDS011;5288;42.334;23.876;2022-07-01T05:37:14;6.63;;;4.17;;
10481;SDS011;5288;42.334;23.876;2022-07-01T05:39:43;5.27;;;4.30;;
10481;SDS011;5288;42.334;23.876;2022-07-01T05:42:11;7.53;;;4.60;;
10481;SDS011;5288;42.334;23.876;2022-07-01T05:44:38;5.37;;;4.87;;
10481;SDS011;5288;42.334;23.876;2022-07-01T05:47:05;12.03;;;4.57;;
10481;SDS011;5288;42.334;23.876;2022-07-01T05:49:32;9.50;;;4.53;;
10481;SDS011;5288;42.334;23.876;2022-07-01T05:52:00;7.90;;;4.10;;
10481;SDS011;5288;42.334;23.876;2022-07-01T05:54:27;5.67;;;4.50;;
10481;SDS011;5288;42.334;23.876;2022-07-01T05:56:54;12.27;;;4.87;;
10481;SDS011;5288;42.334;23.876;2022-07-01T05:59:21;4.57;;;4.13;;
10481;SDS011;5288;42.334;23.876;2022-07-01T06:01:48;6.40;;;3.83;;
10481;SDS011;5288;42.334;23.876;2022-07-01T06:04:16;6.37;;;4.10;;
10481;SDS011;5288;42.334;23.876;2022-07-01T06:06:43;7.90;;;4.10;;
10481;SDS011;5288;42.334;23.876;2022-07-01T06:09:11;7.93;;;4.10;;
10481;SDS011;5288;42.334;23.876;2022-07-01T06:11:39;5.83;;;3.43;;
10481;SDS011;5288;42.334;23.876;2022-07-01T06:14:06;6.43;;;3.90;;
10481;SDS011;5288;42.334;23.876;2022-07-01T06:16:33;8.53;;;3.63;;
10481;SDS011;5288;42.334;23.876;2022-07-01T06:19:00;11.27;;;4.13;;
10481;SDS011;5288;42.334;23.876;2022-07-01T06:21:27;4.83;;;3.63;;
10481;SDS011;5288;42.334;23.876;2022-07-01T06:23:54;5.83;;;4.13;;
10481;SDS011;5288;42.334;23.876;2022-07-01T06:26:23;6.73;;;4.13;;
10481;SDS011;5288;42.334;23.876;2022-07-01T06:28:50;6.53;;;3.80;;
10481;SDS011;5288;42.334;23.876;2022-07-01T06:31:17;8.47;;;3.80;;
10481;SDS011;5288;42.334;23.876;2022-07-01T06:33:44;4.73;;;3.83;;
10481;SDS011;5288;42.334;23.876;2022-07-01T06:36:11;9.10;;;3.70;;
10481;SDS011;5288;42.334;23.876;2022-07-01T06:38:39;7.17;;;3.77;;
10481;SDS011;5288;42.334;23.876;2022-07-01T06:41:06;6.30;;;3.60;;
10481;SDS011;5288;42.334;23.876;2022-07-01T06:43:52;7.17;;;3.63;;
10481;SDS011;5288;42.334;23.876;2022-07-01T06:46:20;3.97;;;3.47;;
10481;SDS011;5288;42.334;23.876;2022-07-01T06:48:47;5.33;;;3.10;;
10481;SDS011;5288;42.334;23.876;2022-07-01T06:51:15;6.77;;;3.47;;
10481;SDS011;5288;42.334;23.876;2022-07-01T06:53:42;4.07;;;3.10;;
10481;SDS011;5288;42.334;23.876;2022-07-01T06:56:10;6.37;;;3.30;;
10481;SDS011;5288;42.334;23.876;2022-07-01T06:58:37;6.10;;;3.10;;
10481;SDS011;5288;42.334;23.876;2022-07-01T07:01:06;6.13;;;3.50;;
10481;SDS011;5288;42.334;23.876;2022-07-01T07:03:33;9.97;;;3.83;;
10481;SDS011;5288;42.334;23.876;2022-07-01T07:06:01;5.33;;;2.93;;
10481;SDS011;5288;42.334;23.876;2022-07-01T07:08:28;6.83;;;3.20;;
10481;SDS011;5288;42.334;23.876;2022-07-01T07:10:56;4.87;;;2.80;;
10481;SDS011;5288;42.334;23.876;2022-07-01T07:13:23;4.23;;;3.10;;
10481;SDS011;5288;42.334;23.876;2022-07-01T07:15:50;7.40;;;3.20;;
10481;SDS011;5288;42.334;23.876;2022-07-01T07:18:19;5.50;;;3.53;;
10481;SDS011;5288;42.334;23.876;2022-07-01T07:20:46;6.93;;;3.27;;
10481;SDS011;5288;42.334;23.876;2022-07-01T07:23:13;7.83;;;3.10;;
10481;SDS011;5288;42.334;23.876;2022-07-01T07:25:41;4.17;;;3.03;;
10481;SDS011;5288;42.334;23.876;2022-07-01T07:28:08;4.03;;;3.13;;
10481;SDS011;5288;42.334;23.876;2022-07-01T07:30:35;4.50;;;2.93;;
10481;SDS011;5288;42.334;23.876;2022-07-01T07:33:02;5.77;;;3.13;;
10481;SDS011;5288;42.334;23.876;2022-07-01T07:35:31;6.53;;;3.30;;
10481;SDS011;5288;42.334;23.876;2022-07-01T07:37:58;7.50;;;3.37;;
10481;SDS011;5288;42.334;23.876;2022-07-01T07:40:25;3.80;;;3.00;;
10481;SDS011;5288;42.334;23.876;2022-07-01T07:42:53;4.90;;;3.17;;
10481;SDS011;5288;42.334;23.876;2022-07-01T07:45:20;4.23;;;2.87;;
10481;SDS011;5288;42.334;23.876;2022-07-01T07:47:48;5.50;;;3.07;;
10481;SDS011;5288;42.334;23.876;2022-07-01T07:50:16;4.90;;;3.00;;
10481;SDS011;5288;42.334;23.876;2022-07-01T07:52:45;3.77;;;3.20;;
10481;SDS011;5288;42.334;23.876;2022-07-01T07:55:12;5.97;;;3.10;;
10481;SDS011;5288;42.334;23.876;2022-07-01T07:57:39;3.80;;;2.93;;
10481;SDS011;5288;42.334;23.876;2022-07-01T08:00:07;6.40;;;2.87;;
10481;SDS011;5288;42.334;23.876;2022-07-01T08:02:36;3.83;;;3.00;;
10481;SDS011;5288;42.334;23.876;2022-07-01T08:05:04;13.10;;;3.60;;
10481;SDS011;5288;42.334;23.876;2022-07-01T08:07:34;3.47;;;2.97;;
10481;SDS011;5288;42.334;23.876;2022-07-01T08:10:04;3.40;;;3.07;;
10481;SDS011;5288;42.334;23.876;2022-07-01T08:12:31;3.08;;;2.75;;
10481;SDS011;5288;42.334;23.876;2022-07-01T08:14:58;3.60;;;3.20;;
10481;SDS011;5288;42.334;23.876;2022-07-01T08:17:26;4.03;;;3.05;;
10481;SDS011;5288;42.334;23.876;2022-07-01T08:19:53;3.95;;;2.60;;
10481;SDS011;5288;42.334;23.876;2022-07-01T08:22:20;9.57;;;2.92;;
10481;SDS011;5288;42.334;23.876;2022-07-01T08:24:47;11.48;;;3.20;;
10481;SDS011;5288;42.334;23.876;2022-07-01T08:27:16;4.55;;;3.05;;
10481;SDS011;5288;42.334;23.876;2022-07-01T08:29:43;5.28;;;2.80;;
10481;SDS011;5288;42.334;23.876;2022-07-01T08:32:10;7.15;;;2.90;;
10481;SDS011;5288;42.334;23.876;2022-07-01T08:34:37;4.07;;;2.90;;
10481;SDS011;5288;42.334;23.876;2022-07-01T08:37:04;4.00;;;2.90;;
10481;SDS011;5288;42.334;23.876;2022-07-01T08:39:31;5.38;;;3.05;;
10481;SDS011;5288;42.334;23.876;2022-07-01T08:41:58;15.18;;;3.70;;
10481;SDS011;5288;42.334;23.876;2022-07-01T08:44:27;6.35;;;3.30;;
10481;SDS011;5288;42.334;23.876;2022-07-01T08:46:54;7.20;;;3.25;;
10481;SDS011;5288;42.334;23.876;2022-07-01T08:49:21;4.07;;;3.30;;
10481;SDS011;5288;42.334;23.876;2022-07-01T08:51:49;10.23;;;3.35;;
10481;SDS011;5288;42.334;23.876;2022-07-01T08:54:16;8.02;;;3.33;;
10481;SDS011;5288;42.334;23.876;2022-07-01T08:56:43;4.45;;;3.72;;
10481;SDS011;5288;42.334;23.876;2022-07-01T08:59:12;7.07;;;4.00;;
10481;SDS011;5288;42.334;23.876;2022-07-01T09:01:53;5.82;;;3.97;;
10481;SDS011;5288;42.334;23.876;2022-07-01T09:04:24;4.18;;;3.33;;
10481;SDS011;5288;42.334;23.876;2022-07-01T09:06:57;8.57;;;4.10;;
10481;SDS011;5288;42.334;23.876;2022-07-01T09:09:28;5.57;;;3.25;;
10481;SDS011;5288;42.334;23.876;2022-07-01T09:11:55;6.13;;;3.58;;
10481;SDS011;5288;42.334;23.876;2022-07-01T09:14:23;5.68;;;3.13;;
10481;SDS011;5288;42.334;23.876;2022-07-01T09:16:54;14.60;;;4.00;;
10481;SDS011;5288;42.334;23.876;2022-07-01T09:19:23;3.53;;;3.22;;
10481;SDS011;5288;42.334;23.876;2022-07-01T09:21:52;6.35;;;3.00;;
10481;SDS011;5288;42.334;23.876;2022-07-01T09:24:23;4.80;;;3.42;;
10481;SDS011;5288;42.334;23.876;2022-07-01T09:26:53;4.68;;;3.72;;
10481;SDS011;5288;42.334;23.876;2022-07-01T09:29:25;3.80;;;3.50;;
10481;SDS011;5288;42.334;23.876;2022-07-01T09:31:55;5.32;;;3.53;;
10481;SDS011;5288;42.334;23.876;2022-07-01T09:34:22;3.75;;;3.33;;
10481;SDS011;5288;42.334;23.876;2022-07-01T09:36:52;3.95;;;3.25;;
10481;SDS011;5288;42.334;23.876;2022-07-01T09:39:20;4.95;;;3.40;;
10481;SDS011;5288;42.334;23.876;2022-07-01T09:41:48;4.90;;;3.33;;
10481;SDS011;5288;42.334;23.876;2022-07-01T09:44:15;7.28;;;4.45;;
10481;SDS011;5288;42.334;23.876;2022-07-01T09:46:56;4.63;;;3.75;;
10481;SDS011;5288;42.334;23.876;2022-07-01T09:49:26;3.58;;;3.28;;
10481;SDS011;5288;42.334;23.876;2022-07-01T09:51:53;6.60;;;4.00;;
10481;SDS011;5288;42.334;23.876;2022-07-01T09:54:20;13.55;;;4.40;;
10481;SDS011;5288;42.334;23.876;2022-07-01T09:56:47;5.70;;;4.18;;
10481;SDS011;5288;42.334;23.876;2022-07-01T09:59:14;24.48;;;10.93;;
10481;SDS011;5288;42.334;23.876;2022-07-01T10:01:41;17.77;;;9.52;;
10481;SDS011;5288;42.334;23.876;2022-07-01T10:04:12;7.13;;;4.45;;
10481;SDS011;5288;42.334;23.876;2022-07-01T10:07:05;5.75;;;3.50;;
10481;SDS011;5288;42.334;23.876;2022-07-01T10:09:43;54.25;;;23.90;;
10481;SDS011;5288;42.334;23.876;2022-07-01T10:15:07;121.45;;;52.60;;
10481;SDS011;5288;42.334;23.876;2022-07-01T10:17:36;73.88;;;37.25;;
10481;SDS011;5288;42.334;23.876;2022-07-01T10:20:10;26.88;;;13.48;;
10481;SDS011;5288;42.334;23.876;2022-07-01T10:22:38;4.88;;;4.40;;
10481;SDS011;5288;42.334;23.876;2022-07-01T10:30:53;7.82;;;4.28;;
10481;SDS011;5288;42.334;23.876;2022-07-01T10:33:30;7.65;;;4.57;;
10481;SDS011;5288;42.334;23.876;2022-07-01T10:36:06;5.95;;;3.95;;
10481;SDS011;5288;42.334;23.876;2022-07-01T10:38:35;5.07;;;4.25;;
10481;SDS011;5288;42.334;23.876;2022-07-01T10:41:22;5.90;;;4.15;;
10481;SDS011;5288;42.334;23.876;2022-07-01T10:43:50;7.20;;;4.25;;
10481;SDS011;5288;42.334;23.876;2022-07-01T10:46:33;6.07;;;5.00;;
10481;SDS011;5288;42.334;23.876;2022-07-01T10:49:05;8.57;;;4.70;;
10481;SDS011;5288;42.334;23.876;2022-07-01T10:51:47;4.25;;;3.88;;
10481;SDS011;5288;42.334;23.876;2022-07-01T10:57:25;3.95;;;3.65;;
10481;SDS011;5288;42.334;23.876;2022-07-01T11:03:09;4.55;;;3.92;;
10481;SDS011;5288;42.334;23.876;2022-07-01T11:05:45;4.93;;;3.72;;
10481;SDS011;5288;42.334;23.876;2022-07-01T11:08:15;4.30;;;3.90;;
10481;SDS011;5288;42.334;23.876;2022-07-01T11:10:42;5.55;;;3.45;;
10481;SDS011;5288;42.334;23.876;2022-07-01T11:13:12;6.45;;;3.83;;
10481;SDS011;5288;42.334;23.876;2022-07-01T11:15:40;5.65;;;3.53;;
10481;SDS011;5288;42.334;23.876;2022-07-01T11:18:08;3.80;;;3.50;;
10481;SDS011;5288;42.334;23.876;2022-07-01T11:20:35;4.30;;;3.58;;
10481;SDS011;5288;42.334;23.876;2022-07-01T11:23:02;5.68;;;3.45;;
10481;SDS011;5288;42.334;23.876;2022-07-01T11:25:31;4.07;;;3.60;;
10481;SDS011;5288;42.334;23.876;2022-07-01T11:27:58;4.38;;;3.97;;
10481;SDS011;5288;42.334;23.876;2022-07-01T11:30:25;7.68;;;3.75;;
10481;SDS011;5288;42.334;23.876;2022-07-01T11:32:54;5.38;;;3.20;;
10481;SDS011;5288;42.334;23.876;2022-07-01T11:35:23;2.97;;;2.70;;
10481;SDS011;5288;42.334;23.876;2022-07-01T11:38:10;3.35;;;3.05;;
10481;SDS011;5288;42.334;23.876;2022-07-01T11:40:57;5.07;;;2.92;;
10481;SDS011;5288;42.334;23.876;2022-07-01T11:43:26;4.93;;;3.25;;
10481;SDS011;5288;42.334;23.876;2022-07-01T11:45:56;4.35;;;3.47;;
10481;SDS011;5288;42.334;23.876;2022-07-01T11:48:37;6.20;;;3.03;;
10481;SDS011;5288;42.334;23.876;2022-07-01T11:51:05;5.97;;;3.85;;
10481;SDS011;5288;42.334;23.876;2022-07-01T11:53:35;4.45;;;3.53;;
10481;SDS011;5288;42.334;23.876;2022-07-01T11:56:04;3.53;;;3.22;;
10481;SDS011;5288;42.334;23.876;2022-07-01T11:58:43;3.85;;;3.10;;
10481;SDS011;5288;42.334;23.876;2022-07-01T12:01:19;4.97;;;2.78;;
10481;SDS011;5288;42.334;23.876;2022-07-01T12:03:47;3.90;;;3.45;;
10481;SDS011;5288;42.334;23.876;2022-07-01T12:06:15;4.80;;;3.55;;
10481;SDS011;5288;42.334;23.876;2022-07-01T12:08:44;5.38;;;3.22;;
10481;SDS011;5288;42.334;23.876;2022-07-01T12:11:13;11.98;;;3.30;;
10481;SDS011;5288;42.334;23.876;2022-07-01T12:13:42;4.32;;;3.03;;
10481;SDS011;5288;42.334;23.876;2022-07-01T12:16:10;4.53;;;3.50;;
10481;SDS011;5288;42.334;23.876;2022-07-01T12:18:38;7.57;;;3.40;;
10481;SDS011;5288;42.334;23.876;2022-07-01T12:21:06;9.75;;;4.25;;
10481;SDS011;5288;42.334;23.876;2022-07-01T12:23:33;5.47;;;3.53;;
10481;SDS011;5288;42.334;23.876;2022-07-01T12:26:03;4.68;;;3.15;;
10481;SDS011;5288;42.334;23.876;2022-07-01T12:28:32;7.65;;;3.22;;
10481;SDS011;5288;42.334;23.876;2022-07-01T12:31:04;4.70;;;3.28;;
10481;SDS011;5288;42.334;23.876;2022-07-01T12:33:33;6.22;;;3.53;;
10481;SDS011;5288;42.334;23.876;2022-07-01T12:36:03;90.40;;;9.20;;
10481;SDS011;5288;42.334;23.876;2022-07-01T12:38:31;6.05;;;3.30;;
10481;SDS011;5288;42.334;23.876;2022-07-01T12:40:59;4.32;;;3.40;;
10481;SDS011;5288;42.334;23.876;2022-07-01T12:43:27;5.43;;;3.50;;
10481;SDS011;5288;42.334;23.876;2022-07-01T12:45:58;4.63;;;3.17;;
10481;SDS011;5288;42.334;23.876;2022-07-01T12:48:26;4.25;;;3.17;;
10481;SDS011;5288;42.334;23.876;2022-07-01T12:50:54;3.85;;;3.10;;
10481;SDS011;5288;42.334;23.876;2022-07-01T12:53:23;4.03;;;3.10;;
10481;SDS011;5288;42.334;23.876;2022-07-01T12:55:52;4.55;;;3.30;;
10481;SDS011;5288;42.334;23.876;2022-07-01T12:58:22;3.50;;;3.20;;
10481;SDS011;5288;42.334;23.876;2022-07-01T13:00:51;5.70;;;3.22;;
10481;SDS011;5288;42.334;23.876;2022-07-01T13:03:21;4.88;;;3.35;;
10481;SDS011;5288;42.334;23.876;2022-07-01T13:05:50;3.22;;;2.92;;
10481;SDS011;5288;42.334;23.876;2022-07-01T13:08:18;4.47;;;3.25;;
10481;SDS011;5288;42.334;23.876;2022-07-01T13:10:46;7.22;;;3.17;;
10481;SDS011;5288;42.334;23.876;2022-07-01T13:13:15;4.00;;;3.17;;
10481;SDS011;5288;42.334;23.876;2022-07-01T13:15:43;3.15;;;2.95;;
10481;SDS011;5288;42.334;23.876;2022-07-01T13:18:10;3.47;;;3.20;;
10481;SDS011;5288;42.334;23.876;2022-07-01T13:20:41;4.25;;;3.53;;
10481;SDS011;5288;42.334;23.876;2022-07-01T13:23:08;4.50;;;3.20;;
10481;SDS011;5288;42.334;23.876;2022-07-01T13:25:35;5.32;;;3.10;;
10481;SDS011;5288;42.334;23.876;2022-07-01T13:28:03;6.60;;;3.40;;
10481;SDS011;5288;42.334;23.876;2022-07-01T13:30:30;3.55;;;3.20;;
10481;SDS011;5288;42.334;23.876;2022-07-01T13:32:57;3.45;;;3.20;;
10481;SDS011;5288;42.334;23.876;2022-07-01T13:35:25;3.30;;;3.00;;
10481;SDS011;5288;42.334;23.876;2022-07-01T13:37:54;7.45;;;3.47;;
10481;SDS011;5288;42.334;23.876;2022-07-01T13:40:21;3.50;;;3.20;;
10481;SDS011;5288;42.334;23.876;2022-07-01T13:42:48;8.27;;;4.20;;
10481;SDS011;5288;42.334;23.876;2022-07-01T13:45:15;4.60;;;3.03;;
10481;SDS011;5288;42.334;23.876;2022-07-01T13:47:42;2.90;;;2.70;;
10481;SDS011;5288;42.334;23.876;2022-07-01T13:50:10;6.85;;;4.50;;
10481;SDS011;5288;42.334;23.876;2022-07-01T13:52:38;6.18;;;3.30;;
10481;SDS011;5288;42.334;23.876;2022-07-01T13:55:06;6.78;;;3.10;;
10481;SDS011;5288;42.334;23.876;2022-07-01T13:57:34;5.43;;;3.00;;
10481;SDS011;5288;42.334;23.876;2022-07-01T14:00:01;3.70;;;2.95;;
10481;SDS011;5288;42.334;23.876;2022-07-01T14:02:30;6.82;;;4.53;;
10481;SDS011;5288;42.334;23.876;2022-07-01T14:04:57;3.15;;;2.80;;
10481;SDS011;5288;42.334;23.876;2022-07-01T14:07:24;4.50;;;3.45;;
10481;SDS011;5288;42.334;23.876;2022-07-01T14:09:51;5.90;;;2.97;;
10481;SDS011;5288;42.334;23.876;2022-07-01T14:12:20;4.55;;;3.17;;
10481;SDS011;5288;42.334;23.876;2022-07-01T14:14:47;4.95;;;2.90;;
10481;SDS011;5288;42.334;23.876;2022-07-01T14:17:14;3.45;;;3.15;;
10481;SDS011;5288;42.334;23.876;2022-07-01T14:19:41;4.00;;;3.53;;
10481;SDS011;5288;42.334;23.876;2022-07-01T14:22:08;3.20;;;3.00;;
10481;SDS011;5288;42.334;23.876;2022-07-01T14:24:35;3.33;;;3.03;;
10481;SDS011;5288;42.334;23.876;2022-07-01T14:27:02;4.88;;;3.47;;
10481;SDS011;5288;42.334;23.876;2022-07-01T14:29:31;3.08;;;2.72;;
10481;SDS011;5288;42.334;23.876;2022-07-01T14:31:58;7.63;;;2.92;;
10481;SDS011;5288;42.334;23.876;2022-07-01T14:34:26;7.07;;;3.13;;
10481;SDS011;5288;42.334;23.876;2022-07-01T14:36:53;6.50;;;3.33;;
10481;SDS011;5288;42.334;23.876;2022-07-01T14:39:20;6.90;;;2.90;;
10481;SDS011;5288;42.334;23.876;2022-07-01T14:41:47;3.42;;;2.90;;
10481;SDS011;5288;42.334;23.876;2022-07-01T14:44:18;4.75;;;2.88;;
10481;SDS011;5288;42.334;23.876;2022-07-01T14:46:46;4.05;;;2.63;;
10481;SDS011;5288;42.334;23.876;2022-07-01T14:49:13;4.78;;;3.47;;
10481;SDS011;5288;42.334;23.876;2022-07-01T14:51:42;4.30;;;3.00;;
10481;SDS011;5288;42.334;23.876;2022-07-01T14:54:10;3.03;;;2.83;;
10481;SDS011;5288;42.334;23.876;2022-07-01T14:56:37;6.20;;;3.35;;
10481;SDS011;5288;42.334;23.876;2022-07-01T14:59:04;5.07;;;3.42;;
10481;SDS011;5288;42.334;23.876;2022-07-01T15:01:31;5.20;;;3.13;;
10481;SDS011;5288;42.334;23.876;2022-07-01T15:04:00;4.13;;;3.70;;
10481;SDS011;5288;42.334;23.876;2022-07-01T15:06:27;4.20;;;3.05;;
10481;SDS011;5288;42.334;23.876;2022-07-01T15:08:54;5.43;;;3.10;;